createdAt,value
2022-10-06T00:01:15.790Z,12.80
2022-10-06T00:03:45.396Z,12.80
2022-10-06T00:06:17.337Z,12.76
2022-10-06T00:08:48.576Z,12.70
2022-10-06T00:11:18.721Z,12.70
2022-10-06T00:13:47.880Z,12.70
2022-10-06T00:16:23.834Z,12.70
2022-10-06T00:18:52.862Z,12.70
2022-10-06T00:21:19.811Z,12.70
2022-10-06T00:23:46.199Z,12.60
2022-10-06T00:26:15.997Z,12.50
2022-10-06T00:28:45.876Z,12.50
2022-10-06T00:31:13.312Z,12.40
2022-10-06T00:33:40.277Z,12.30
2022-10-06T00:36:08.500Z,12.30
2022-10-06T00:38:35.707Z,12.30
2022-10-06T00:41:03.173Z,12.30
2022-10-06T00:43:57.559Z,12.28
2022-10-06T00:46:44.849Z,12.30
2022-10-06T00:49:16.596Z,12.20
2022-10-06T00:52:01.291Z,12.20
2022-10-06T00:54:28.654Z,12.12
2022-10-06T00:56:58.389Z,12.10
2022-10-06T00:59:29.779Z,12.10
2022-10-06T01:02:10.129Z,12.00
2022-10-06T01:04:43.729Z,12.00
2022-10-06T01:07:10.928Z,12.00
2022-10-06T01:09:38.101Z,11.90
2022-10-06T01:12:08.293Z,11.90
2022-10-06T01:14:38.589Z,11.80
2022-10-06T01:17:22.569Z,11.80
2022-10-06T01:20:02.559Z,11.74
2022-10-06T01:23:12.636Z,11.70
2022-10-06T01:25:40.032Z,11.70
2022-10-06T01:28:09.321Z,11.70
2022-10-06T01:30:53.823Z,11.62
2022-10-06T01:33:23.299Z,11.60
2022-10-06T01:35:51.968Z,11.60
2022-10-06T01:38:19.764Z,11.50
2022-10-06T01:40:47.460Z,11.50
2022-10-06T01:43:13.867Z,11.40
2022-10-06T01:45:40.934Z,11.40
2022-10-06T01:48:08.185Z,11.40
2022-10-06T01:50:34.891Z,11.30
2022-10-06T01:53:01.794Z,11.30
2022-10-06T01:55:28.481Z,11.28
2022-10-06T01:57:55.699Z,11.20
2022-10-06T02:00:22.227Z,11.20
2022-10-06T02:02:50.249Z,11.20
2022-10-06T02:05:17.505Z,11.20
2022-10-06T02:07:44.141Z,11.10
2022-10-06T02:10:10.781Z,11.10
2022-10-06T02:12:37.262Z,11.10
2022-10-06T02:15:05.805Z,11.10
2022-10-06T02:17:32.127Z,11.10
2022-10-06T02:19:58.497Z,11.10
2022-10-06T02:22:27.256Z,11.10
2022-10-06T02:24:54.383Z,11.00
2022-10-06T02:27:22.305Z,11.00
2022-10-06T02:29:49.813Z,11.00
2022-10-06T02:32:19.174Z,10.94
2022-10-06T02:34:45.659Z,10.90
2022-10-06T02:37:13.626Z,10.90
2022-10-06T02:39:40.027Z,10.80
2022-10-06T02:42:06.816Z,10.80
2022-10-06T02:44:33.707Z,10.80
2022-10-06T02:47:01.309Z,10.74
2022-10-06T02:49:29.282Z,10.80
2022-10-06T02:51:56.079Z,10.80
2022-10-06T02:54:22.832Z,10.78
2022-10-06T02:56:50.187Z,10.70
2022-10-06T02:59:17.393Z,10.70
2022-10-06T03:01:43.787Z,10.70
2022-10-06T03:04:11.595Z,10.70
2022-10-06T03:06:38.082Z,10.70
2022-10-06T03:09:08.411Z,10.68
2022-10-06T03:11:39.014Z,10.60
2022-10-06T03:14:07.448Z,10.60
2022-10-06T03:16:38.561Z,10.60
2022-10-06T03:19:07.953Z,10.60
2022-10-06T03:21:42.755Z,10.50
2022-10-06T03:24:11.726Z,10.60
2022-10-06T03:26:42.111Z,10.50
2022-10-06T03:29:12.167Z,10.40
2022-10-06T03:31:40.071Z,10.26
2022-10-06T03:34:07.692Z,10.10
2022-10-06T03:36:36.665Z,10.00
2022-10-06T03:39:06.587Z,9.90
2022-10-06T03:41:36.517Z,9.90
2022-10-06T03:44:04.177Z,10.00
2022-10-06T03:46:34.111Z,10.00
2022-10-06T03:49:01.098Z,10.00
2022-10-06T03:51:40.551Z,10.00
2022-10-06T03:54:10.103Z,10.00
2022-10-06T03:56:40.214Z,9.76
2022-10-06T03:59:10.617Z,9.60
2022-10-06T04:01:43.677Z,9.60
2022-10-06T04:04:13.246Z,9.60
2022-10-06T04:06:43.773Z,9.64
2022-10-06T04:09:15.929Z,9.60
2022-10-06T04:11:44.819Z,9.60
2022-10-06T04:14:16.294Z,9.52
2022-10-06T04:16:49.713Z,9.52
2022-10-06T04:19:20.018Z,9.50
2022-10-06T04:21:48.229Z,9.40
2022-10-06T04:24:17.701Z,9.40
2022-10-06T04:26:46.321Z,9.40
2022-10-06T04:29:13.939Z,9.50
2022-10-06T04:31:42.001Z,9.50
2022-10-06T04:34:12.750Z,9.40
2022-10-06T04:36:42.034Z,9.30
2022-10-06T04:39:11.402Z,9.20
2022-10-06T04:41:41.579Z,9.18
2022-10-06T04:44:09.848Z,9.10
2022-10-06T04:46:44.973Z,9.10
2022-10-06T04:49:19.663Z,9.04
2022-10-06T04:51:50.312Z,9.10
2022-10-06T04:54:18.543Z,9.10
2022-10-06T04:56:45.461Z,9.00
2022-10-06T04:59:12.502Z,8.90
2022-10-06T05:01:39.480Z,8.80
2022-10-06T05:04:08.250Z,8.80
2022-10-06T05:06:41.543Z,8.80
2022-10-06T05:09:15.157Z,8.70
2022-10-06T05:11:41.802Z,8.70
2022-10-06T05:14:09.544Z,8.60
2022-10-06T05:16:37.479Z,8.50
2022-10-06T05:19:06.206Z,8.50
2022-10-06T05:21:34.080Z,8.50
2022-10-06T05:24:02.176Z,8.60
2022-10-06T05:26:35.080Z,8.68
2022-10-06T05:29:02.239Z,8.60
2022-10-06T05:31:38.562Z,8.60
2022-10-06T05:34:06.983Z,8.62
2022-10-06T05:36:34.211Z,8.60
2022-10-06T05:39:03.242Z,8.50
2022-10-06T05:41:32.709Z,8.40
2022-10-06T05:43:59.441Z,8.30
2022-10-06T05:46:34.764Z,8.32
2022-10-06T05:49:08.442Z,8.30
2022-10-06T05:51:38.189Z,8.30
2022-10-06T05:54:05.622Z,8.20
2022-10-06T05:56:36.783Z,8.20
2022-10-06T05:59:07.571Z,8.10
2022-10-06T06:01:41.547Z,8.10
2022-10-06T06:04:10.349Z,8.00
2022-10-06T06:06:46.692Z,7.90
2022-10-06T06:09:17.113Z,7.90
2022-10-06T06:11:47.700Z,8.00
2022-10-06T06:14:43.690Z,8.10
2022-10-06T06:17:10.847Z,8.10
2022-10-06T06:19:37.323Z,8.20
2022-10-06T06:22:03.722Z,8.20
2022-10-06T06:24:30.248Z,8.24
2022-10-06T06:26:58.344Z,8.30
2022-10-06T06:29:25.398Z,8.30
2022-10-06T06:31:52.896Z,8.40
2022-10-06T06:34:22.092Z,8.50
2022-10-06T06:36:53.258Z,8.60
2022-10-06T06:39:21.145Z,8.70
2022-10-06T06:41:48.277Z,8.80
2022-10-06T06:44:14.807Z,8.80
2022-10-06T06:46:45.200Z,8.80
2022-10-06T06:49:12.453Z,8.80
2022-10-06T06:51:48.933Z,8.82
2022-10-06T06:54:18.750Z,8.90
2022-10-06T06:56:48.580Z,8.92
2022-10-06T06:59:17.899Z,9.00
2022-10-06T07:01:48.456Z,9.00
2022-10-06T07:04:17.246Z,9.00
2022-10-06T07:06:56.557Z,9.00
2022-10-06T07:09:25.964Z,9.08
2022-10-06T07:11:55.508Z,9.10
2022-10-06T07:14:23.955Z,9.16
2022-10-06T07:17:10.064Z,9.16
2022-10-06T07:19:57.569Z,9.12
2022-10-06T07:22:46.419Z,9.14
2022-10-06T07:25:26.791Z,9.20
2022-10-06T07:27:53.853Z,9.30
2022-10-06T07:30:24.934Z,9.30
2022-10-06T07:32:53.140Z,9.40
2022-10-06T07:35:22.266Z,9.40
2022-10-06T07:37:52.589Z,9.42
2022-10-06T07:40:19.368Z,9.50
2022-10-06T07:42:50.158Z,9.60
2022-10-06T07:45:44.574Z,9.70
2022-10-06T07:48:17.640Z,9.80
2022-10-06T07:50:52.787Z,9.84
2022-10-06T07:53:22.332Z,9.90
2022-10-06T07:55:52.105Z,9.90
2022-10-06T07:58:25.268Z,10.00
2022-10-06T08:00:53.631Z,10.00
2022-10-06T08:03:24.697Z,10.10
2022-10-06T08:06:00.833Z,10.20
2022-10-06T08:08:32.089Z,10.20
2022-10-06T08:11:01.661Z,10.30
2022-10-06T08:13:33.203Z,10.30
2022-10-06T08:16:16.411Z,10.30
2022-10-06T08:18:48.169Z,10.36
2022-10-06T08:21:20.132Z,10.40
2022-10-06T08:23:56.677Z,10.44
2022-10-06T08:26:28.562Z,10.50
2022-10-06T08:28:58.131Z,10.56
2022-10-06T08:31:26.216Z,10.60
2022-10-06T08:33:56.760Z,10.62
2022-10-06T08:36:31.596Z,10.70
2022-10-06T08:39:00.394Z,10.70
2022-10-06T08:41:43.473Z,10.80
2022-10-06T08:44:17.788Z,10.90
2022-10-06T08:47:17.542Z,10.94
2022-10-06T08:49:50.261Z,11.00
2022-10-06T08:52:48.958Z,11.10
2022-10-06T08:55:30.979Z,11.10
2022-10-06T08:58:35.013Z,11.20
2022-10-06T09:01:18.486Z,11.20
2022-10-06T09:03:50.870Z,11.28
2022-10-06T09:06:21.914Z,11.40
2022-10-06T09:09:14.923Z,11.50
2022-10-06T09:12:36.417Z,11.60
2022-10-06T09:15:18.710Z,11.60
2022-10-06T09:17:57.301Z,11.70
2022-10-06T09:20:57.526Z,11.70
2022-10-06T09:23:48.544Z,11.80
2022-10-06T09:26:21.529Z,11.80
2022-10-06T09:28:50.778Z,11.90
2022-10-06T09:31:31.915Z,12.00
2022-10-06T09:34:46.273Z,12.04
2022-10-06T09:37:13.705Z,12.10
2022-10-06T09:39:50.406Z,12.20
2022-10-06T09:42:29.073Z,12.20
2022-10-06T09:45:25.866Z,12.28
2022-10-06T09:47:53.824Z,12.30
2022-10-06T09:50:27.381Z,12.40
2022-10-06T09:53:00.310Z,12.50
2022-10-06T09:55:37.925Z,12.68
2022-10-06T09:58:33.606Z,12.80
2022-10-06T10:01:08.924Z,12.90
2022-10-06T10:04:18.650Z,13.00
2022-10-06T10:06:41.065Z,13.10
2022-10-06T10:09:29.430Z,13.10
2022-10-06T10:12:23.897Z,13.14
2022-10-06T10:14:58.266Z,13.20
2022-10-06T10:17:39.337Z,13.20
2022-10-06T10:20:38.500Z,13.20
2022-10-06T10:23:24.921Z,13.26
2022-10-06T10:26:17.381Z,13.30
2022-10-06T10:29:03.347Z,13.30
2022-10-06T10:31:48.495Z,13.36
2022-10-06T10:35:04.586Z,13.40
2022-10-06T10:38:30.277Z,13.42
2022-10-06T10:41:11.850Z,13.50
2022-10-06T10:44:14.636Z,13.50
2022-10-06T10:46:56.830Z,13.66
2022-10-06T10:49:29.770Z,13.72
2022-10-06T10:52:24.017Z,13.90
2022-10-06T10:55:26.685Z,14.12
2022-10-06T10:57:59.124Z,14.40
2022-10-06T11:00:30.830Z,14.70
2022-10-06T11:03:00.587Z,14.80
2022-10-06T11:06:25.136Z,14.70
2022-10-06T11:09:13.930Z,14.74
2022-10-06T11:12:06.266Z,15.00
2022-10-06T11:14:59.013Z,15.20
2022-10-06T11:17:44.750Z,15.38
2022-10-06T11:20:47.142Z,15.60
2022-10-06T11:23:20.941Z,15.70
2022-10-06T11:26:28.931Z,15.84
2022-10-06T11:29:45.940Z,15.90
2022-10-06T11:32:21.294Z,16.00
2022-10-06T11:34:49.981Z,16.00
2022-10-06T11:37:47.225Z,15.90
2022-10-06T11:40:41.666Z,15.90
2022-10-06T11:43:55.765Z,16.00
2022-10-06T11:46:59.324Z,16.12
2022-10-06T11:49:28.787Z,16.30
2022-10-06T11:52:08.307Z,16.40
2022-10-06T11:54:47.595Z,16.42
2022-10-06T11:57:26.260Z,16.40
2022-10-06T12:00:17.877Z,16.30
2022-10-06T12:02:47.047Z,16.20
2022-10-06T12:05:45.907Z,16.30
2022-10-06T12:08:03.319Z,16.50
2022-10-06T12:10:31.444Z,16.60
2022-10-06T12:14:01.598Z,16.70
2022-10-06T12:19:30.305Z,16.70
2022-10-06T12:22:17.675Z,16.80
2022-10-06T12:25:32.092Z,16.80
2022-10-06T12:28:18.830Z,17.00
2022-10-06T12:31:36.955Z,17.00
2022-10-06T12:34:23.698Z,17.00
2022-10-06T12:37:29.884Z,16.98
2022-10-06T12:40:57.971Z,16.82
2022-10-06T12:43:34.441Z,17.00
2022-10-06T12:46:11.202Z,17.00
2022-10-06T12:49:03.760Z,17.06
2022-10-06T12:51:46.307Z,17.10
2022-10-06T12:54:39.977Z,17.14
2022-10-06T12:57:20.049Z,17.10
2022-10-06T12:59:49.261Z,17.00
2022-10-06T13:02:26.912Z,16.92
2022-10-06T13:05:00.504Z,16.90
2022-10-06T13:07:33.276Z,16.72
2022-10-06T13:10:32.539Z,16.70
2022-10-06T13:13:00.812Z,16.60
2022-10-06T13:18:12.537Z,16.50
2022-10-06T13:20:51.517Z,16.50
2022-10-06T13:23:25.604Z,16.40
2022-10-06T13:26:00.144Z,16.30
2022-10-06T13:28:32.486Z,16.26
2022-10-06T13:31:32.752Z,16.20
2022-10-06T13:34:16.334Z,16.20
2022-10-06T13:36:48.753Z,16.20
2022-10-06T13:39:25.668Z,16.16
2022-10-06T13:42:15.629Z,16.10
2022-10-06T13:44:55.596Z,16.10
2022-10-06T13:47:28.548Z,16.08
2022-10-06T13:50:20.037Z,16.00
2022-10-06T13:52:47.926Z,16.00
2022-10-06T13:55:22.135Z,15.98
2022-10-06T13:58:11.455Z,15.98
2022-10-06T14:00:59.985Z,15.90
2022-10-06T14:06:25.683Z,15.80
2022-10-06T14:08:57.177Z,15.80
2022-10-06T14:11:28.834Z,15.80
2022-10-06T14:14:03.045Z,15.80
2022-10-06T14:16:30.594Z,15.72
2022-10-06T14:19:04.451Z,15.70
2022-10-06T14:21:40.787Z,15.72
2022-10-06T14:24:22.940Z,15.70
2022-10-06T14:26:50.255Z,15.70
2022-10-06T14:29:18.750Z,15.70
2022-10-06T14:31:47.807Z,15.70
2022-10-06T14:34:21.165Z,15.60
2022-10-06T14:36:54.505Z,15.60
2022-10-06T14:39:23.244Z,15.60
2022-10-06T14:41:49.675Z,15.60
2022-10-06T14:44:16.130Z,15.60
2022-10-06T14:46:48.290Z,15.50
2022-10-06T14:49:16.731Z,15.50
2022-10-06T14:51:44.548Z,15.50
2022-10-06T14:54:12.257Z,15.44
2022-10-06T14:56:40.909Z,15.40
2022-10-06T14:59:11.873Z,15.40
2022-10-06T15:01:40.493Z,15.40
2022-10-06T15:04:18.837Z,15.40
2022-10-06T15:07:06.044Z,15.40
2022-10-06T15:09:32.605Z,15.32
2022-10-06T15:12:00.371Z,15.30
2022-10-06T15:14:29.022Z,15.30
2022-10-06T15:17:00.638Z,15.20
2022-10-06T15:19:27.607Z,15.20
2022-10-06T15:21:53.985Z,15.18
2022-10-06T15:24:22.340Z,15.10
2022-10-06T15:27:07.502Z,15.10
2022-10-06T15:29:35.265Z,15.10
2022-10-06T15:32:06.427Z,15.06
2022-10-06T15:34:36.581Z,15.00
2022-10-06T15:37:04.364Z,15.00
2022-10-06T15:39:36.022Z,15.00
2022-10-06T15:42:03.683Z,15.00
2022-10-06T15:44:36.790Z,15.00
2022-10-06T15:47:07.093Z,15.00
2022-10-06T15:49:40.794Z,15.00
2022-10-06T15:52:12.355Z,15.00
2022-10-06T15:54:46.461Z,14.90
2022-10-06T15:57:19.546Z,14.90
2022-10-06T15:59:48.801Z,14.90
2022-10-06T16:02:19.001Z,14.90
2022-10-06T16:05:17.863Z,14.90
2022-10-06T16:07:45.733Z,14.90
2022-10-06T16:10:12.840Z,14.80
2022-10-06T16:12:49.242Z,14.80
2022-10-06T16:15:15.872Z,14.74
2022-10-06T16:17:42.469Z,14.80
2022-10-06T16:20:10.874Z,14.72
2022-10-06T16:22:37.581Z,14.70
2022-10-06T16:25:05.279Z,14.66
2022-10-06T16:27:33.621Z,14.60
2022-10-06T16:30:00.116Z,14.60
2022-10-06T16:32:27.848Z,14.60
2022-10-06T16:34:57.057Z,14.50
2022-10-06T16:37:24.708Z,14.50
2022-10-06T16:39:54.582Z,14.50
2022-10-06T16:42:21.617Z,14.50
2022-10-06T16:44:49.028Z,14.50
2022-10-06T16:47:15.377Z,14.40
2022-10-06T16:49:42.040Z,14.40
2022-10-06T16:52:08.390Z,14.40
2022-10-06T16:54:35.176Z,14.30
2022-10-06T16:57:06.018Z,14.26
2022-10-06T16:59:33.501Z,14.20
2022-10-06T17:02:00.586Z,14.20
2022-10-06T17:04:27.587Z,14.20
2022-10-06T17:06:56.579Z,14.10
2022-10-06T17:09:26.631Z,14.10
2022-10-06T17:11:59.549Z,14.00
2022-10-06T17:14:28.708Z,13.90
2022-10-06T17:16:58.648Z,13.90
2022-10-06T17:19:30.443Z,13.90
2022-10-06T17:21:59.831Z,13.80
2022-10-06T17:24:29.173Z,13.80
2022-10-06T17:26:57.214Z,13.70
2022-10-06T17:29:25.953Z,13.70
2022-10-06T17:31:57.837Z,13.70
2022-10-06T17:34:27.718Z,13.68
2022-10-06T17:37:01.952Z,13.60
2022-10-06T17:39:31.350Z,13.50
2022-10-06T17:41:58.942Z,13.48
2022-10-06T17:44:28.968Z,13.40
2022-10-06T17:47:00.511Z,13.30
2022-10-06T17:49:32.164Z,13.30
2022-10-06T17:51:58.769Z,13.20
2022-10-06T17:54:27.694Z,13.10
2022-10-06T17:56:57.215Z,13.10
2022-10-06T17:59:29.731Z,13.10
2022-10-06T18:02:02.773Z,13.00
2022-10-06T18:04:31.343Z,13.00
2022-10-06T18:06:57.806Z,12.92
2022-10-06T18:09:24.545Z,12.90
2022-10-06T18:11:55.588Z,12.86
2022-10-06T18:14:29.736Z,12.80
2022-10-06T18:17:00.135Z,12.80
2022-10-06T18:19:35.509Z,12.80
2022-10-06T18:22:12.328Z,12.70
2022-10-06T18:24:39.506Z,12.70
2022-10-06T18:27:13.287Z,12.70
2022-10-06T18:29:39.894Z,12.70
2022-10-06T18:33:40.236Z,12.70
2022-10-06T18:37:43.986Z,12.70
2022-10-06T18:40:14.245Z,12.80
2022-10-06T18:42:40.657Z,12.80
2022-10-06T18:45:29.353Z,12.80
2022-10-06T18:48:14.842Z,12.78
2022-10-06T18:50:42.161Z,12.70
2022-10-06T18:53:08.713Z,12.60
2022-10-06T18:55:37.214Z,12.60
2022-10-06T18:58:04.005Z,12.50
2022-10-06T19:00:30.514Z,12.50
2022-10-06T19:02:56.954Z,12.40
2022-10-06T19:05:24.750Z,12.40
2022-10-06T19:07:55.777Z,12.30
2022-10-06T19:10:22.687Z,12.30
2022-10-06T19:12:49.440Z,12.26
2022-10-06T19:15:20.357Z,12.26
2022-10-06T19:17:48.345Z,12.28
2022-10-06T19:20:15.142Z,12.30
2022-10-06T19:22:42.713Z,12.30
2022-10-06T19:25:11.975Z,12.30
2022-10-06T19:27:38.778Z,12.30
2022-10-06T19:30:06.048Z,12.30
2022-10-06T19:32:33.358Z,12.40
2022-10-06T19:35:04.237Z,12.40
2022-10-06T19:37:33.353Z,12.40
2022-10-06T19:40:00.070Z,12.40
2022-10-06T19:42:45.954Z,12.40
2022-10-06T19:45:14.962Z,12.40
2022-10-06T19:47:42.261Z,12.34
2022-10-06T19:50:12.573Z,12.32
2022-10-06T19:52:41.504Z,12.24
2022-10-06T19:55:08.246Z,12.20
2022-10-06T19:57:34.699Z,12.10
2022-10-06T20:00:01.705Z,12.00
2022-10-06T20:02:28.325Z,11.90
2022-10-06T20:04:56.563Z,11.80
2022-10-06T20:07:26.810Z,11.62
2022-10-06T20:09:53.522Z,11.50
2022-10-06T20:12:24.647Z,11.40
2022-10-06T20:14:52.850Z,11.40
2022-10-06T20:17:20.162Z,11.32
2022-10-06T20:19:46.555Z,11.30
2022-10-06T20:22:13.685Z,11.30
2022-10-06T20:24:40.117Z,11.30
2022-10-06T20:27:08.449Z,11.26
2022-10-06T20:29:34.966Z,11.14
2022-10-06T20:32:01.352Z,11.02
2022-10-06T20:34:33.326Z,11.00
2022-10-06T20:37:02.494Z,11.00
2022-10-06T20:39:50.588Z,10.90
2022-10-06T20:42:19.967Z,10.80
2022-10-06T20:44:46.698Z,10.70
2022-10-06T20:47:13.855Z,10.70
2022-10-06T20:49:46.866Z,10.70
2022-10-06T20:52:17.601Z,10.70
2022-10-06T20:54:45.937Z,10.70
2022-10-06T20:57:12.621Z,10.70
2022-10-06T20:59:45.096Z,10.74
2022-10-06T21:02:11.736Z,10.78
2022-10-06T21:04:42.809Z,10.70
2022-10-06T21:07:10.755Z,10.70
2022-10-06T21:09:37.190Z,10.62
2022-10-06T21:12:04.525Z,10.60
2022-10-06T21:14:31.406Z,10.50
2022-10-06T21:16:58.293Z,10.50
2022-10-06T21:19:26.345Z,10.40
2022-10-06T21:21:53.328Z,10.40
2022-10-06T21:24:20.807Z,10.40
2022-10-06T21:26:48.113Z,10.40
2022-10-06T21:29:16.732Z,10.44
2022-10-06T21:31:45.636Z,10.50
2022-10-06T21:34:16.007Z,10.50
2022-10-06T21:36:43.614Z,10.50
2022-10-06T21:39:12.346Z,10.50
2022-10-06T21:41:40.120Z,10.40
2022-10-06T21:44:12.596Z,10.40
2022-10-06T21:46:54.904Z,10.40
2022-10-06T21:49:24.678Z,10.32
2022-10-06T21:51:54.479Z,10.36
2022-10-06T21:54:22.783Z,10.40
2022-10-06T21:56:50.554Z,10.40
2022-10-06T21:59:18.215Z,10.40
2022-10-06T22:01:47.538Z,10.40
2022-10-06T22:04:16.776Z,10.40
2022-10-06T22:06:45.249Z,10.40
2022-10-06T22:09:16.771Z,10.40
2022-10-06T22:11:44.176Z,10.38
2022-10-06T22:14:15.033Z,10.30
2022-10-06T22:16:44.284Z,10.24
2022-10-06T22:19:14.069Z,10.20
2022-10-06T22:21:46.206Z,10.16
2022-10-06T22:24:19.698Z,10.10
2022-10-06T22:26:47.056Z,10.10
2022-10-06T22:29:17.989Z,10.00
2022-10-06T22:31:46.742Z,10.00
2022-10-06T22:34:16.821Z,9.90
2022-10-06T22:36:43.239Z,9.90
2022-10-06T22:39:10.426Z,9.80
2022-10-06T22:41:38.565Z,9.70
2022-10-06T22:44:06.079Z,9.70
2022-10-06T22:46:35.973Z,9.70
2022-10-06T22:49:04.732Z,9.68
2022-10-06T22:51:33.713Z,9.60
2022-10-06T22:54:01.069Z,9.60
2022-10-06T22:56:30.900Z,9.60
2022-10-06T22:58:58.866Z,9.68
2022-10-06T23:01:26.822Z,9.70
2022-10-06T23:03:56.921Z,9.60
2022-10-06T23:06:24.128Z,9.52
2022-10-06T23:08:50.518Z,9.50
2022-10-06T23:11:22.412Z,9.50
2022-10-06T23:13:52.305Z,9.50
2022-10-06T23:16:21.811Z,9.40
2022-10-06T23:18:48.966Z,9.30
2022-10-06T23:21:22.997Z,9.30
2022-10-06T23:23:53.914Z,9.40
2022-10-06T23:26:22.327Z,9.40
2022-10-06T23:28:59.795Z,9.42
2022-10-06T23:31:28.986Z,9.40
2022-10-06T23:33:55.895Z,9.42
2022-10-06T23:36:22.636Z,9.50
2022-10-06T23:38:49.226Z,9.48
2022-10-06T23:41:16.299Z,9.48
2022-10-06T23:43:43.422Z,9.50
2022-10-06T23:46:11.248Z,9.50
2022-10-06T23:48:38.073Z,9.50
2022-10-06T23:51:12.067Z,9.50
2022-10-06T23:53:38.473Z,9.54
2022-10-06T23:56:06.230Z,9.54
2022-10-06T23:58:32.725Z,9.60
